createdAt,value
2019-05-22T00:00:26.883Z,29.60
2019-05-22T00:02:55.810Z,31.03
2019-05-22T00:05:27.613Z,27.77
2019-05-22T00:07:56.123Z,27.20
2019-05-22T00:10:26.548Z,29.13
2019-05-22T00:12:57.302Z,28.97
2019-05-22T00:15:25.791Z,30.50
2019-05-22T00:17:54.289Z,31.00
2019-05-22T00:20:25.554Z,31.37
2019-05-22T00:22:54.703Z,29.67
2019-05-22T00:25:25.749Z,32.50
2019-05-22T00:27:54.673Z,30.77
2019-05-22T00:30:25.485Z,31.17
2019-05-22T00:32:53.939Z,30.00
2019-05-22T00:35:24.295Z,31.07
2019-05-22T00:37:54.741Z,31.47
2019-05-22T00:40:24.871Z,32.40
2019-05-22T00:43:03.861Z,32.53
2019-05-22T00:45:25.833Z,31.13
2019-05-22T00:47:54.635Z,33.00
2019-05-22T00:50:33.234Z,35.00
2019-05-22T00:53:05.058Z,38.73
2019-05-22T00:55:41.498Z,34.97
2019-05-22T00:58:15.585Z,36.73
2019-05-22T01:00:45.867Z,37.00
2019-05-22T01:03:16.828Z,36.67
2019-05-22T01:05:45.370Z,37.13
2019-05-22T01:08:15.755Z,38.27
2019-05-22T01:10:47.570Z,36.30
2019-05-22T01:13:18.143Z,36.93
2019-05-22T01:15:48.227Z,39.03
2019-05-22T01:18:16.708Z,39.50
2019-05-22T01:20:48.013Z,41.17
2019-05-22T01:23:20.150Z,39.27
2019-05-22T01:25:49.431Z,39.43
2019-05-22T01:28:19.514Z,39.53
2019-05-22T01:30:50.690Z,41.27
2019-05-22T01:33:21.358Z,39.70
2019-05-22T01:35:51.535Z,38.73
2019-05-22T01:38:23.036Z,39.47
2019-05-22T01:40:54.305Z,43.97
2019-05-22T01:43:25.333Z,44.07
2019-05-22T01:45:53.672Z,40.83
2019-05-22T01:48:26.877Z,38.03
2019-05-22T01:50:57.769Z,42.90
2019-05-22T01:53:29.203Z,42.30
2019-05-22T01:55:59.592Z,42.80
2019-05-22T01:58:30.853Z,40.03
2019-05-22T02:01:00.646Z,42.90
2019-05-22T02:03:30.783Z,42.43
2019-05-22T02:06:00.883Z,42.80
2019-05-22T02:08:30.496Z,44.83
2019-05-22T02:10:59.996Z,43.70
2019-05-22T02:13:33.565Z,41.10
2019-05-22T02:16:02.255Z,44.27
2019-05-22T02:18:33.990Z,41.90
2019-05-22T02:21:04.539Z,46.43
2019-05-22T02:23:34.140Z,41.40
2019-05-22T02:26:05.902Z,44.30
2019-05-22T02:28:36.574Z,45.47
2019-05-22T02:31:07.078Z,42.90
2019-05-22T02:33:38.098Z,45.23
2019-05-22T02:36:07.711Z,43.63
2019-05-22T02:38:37.595Z,41.67
2019-05-22T02:41:08.505Z,44.43
2019-05-22T02:43:37.243Z,46.33
2019-05-22T02:46:07.484Z,45.93
2019-05-22T02:48:37.203Z,44.17
2019-05-22T02:51:07.084Z,44.90
2019-05-22T02:53:35.872Z,44.07
2019-05-22T02:56:06.507Z,44.97
2019-05-22T02:58:35.615Z,44.67
2019-05-22T03:01:06.194Z,43.83
2019-05-22T03:03:36.601Z,45.83
2019-05-22T03:06:09.185Z,43.80
2019-05-22T03:08:59.599Z,47.80
2019-05-22T03:11:35.384Z,44.27
2019-05-22T03:14:09.066Z,45.47
2019-05-22T03:16:54.232Z,42.83
2019-05-22T03:19:32.375Z,46.47
2019-05-22T03:22:03.847Z,42.13
2019-05-22T03:24:35.042Z,44.77
2019-05-22T03:27:05.510Z,43.57
2019-05-22T03:29:43.437Z,45.40
2019-05-22T03:32:12.643Z,43.77
2019-05-22T03:34:41.265Z,43.97
2019-05-22T03:37:10.163Z,46.23
2019-05-22T03:39:39.886Z,43.07
2019-05-22T03:42:09.003Z,44.93
2019-05-22T03:44:39.221Z,40.97
2019-05-22T03:47:09.384Z,41.37
2019-05-22T03:49:38.441Z,42.80
2019-05-22T03:52:09.268Z,45.80
2019-05-22T03:54:38.201Z,42.93
2019-05-22T03:57:07.605Z,41.93
2019-05-22T03:59:36.730Z,44.17
2019-05-22T04:02:05.570Z,42.13
2019-05-22T04:04:36.719Z,40.63
2019-05-22T04:07:07.242Z,43.77
2019-05-22T04:09:36.980Z,42.70
2019-05-22T04:12:06.345Z,43.23
2019-05-22T04:14:37.855Z,47.30
2019-05-22T04:17:08.238Z,45.50
2019-05-22T04:19:48.375Z,43.73
2019-05-22T04:22:08.298Z,46.07
2019-05-22T04:24:38.026Z,49.80
2019-05-22T04:27:06.857Z,48.10
2019-05-22T04:29:37.182Z,48.07
2019-05-22T04:32:17.525Z,47.73
2019-05-22T04:34:47.469Z,48.20
2019-05-22T04:37:17.486Z,49.17
2019-05-22T04:39:48.566Z,44.10
2019-05-22T04:42:18.960Z,45.13
2019-05-22T04:45:09.032Z,51.50
2019-05-22T04:47:39.337Z,48.93
2019-05-22T04:50:10.917Z,52.80
2019-05-22T04:52:39.549Z,50.40
2019-05-22T04:55:10.569Z,45.13
2019-05-22T04:57:39.447Z,45.10
2019-05-22T05:00:11.628Z,47.03
2019-05-22T05:02:40.929Z,45.93
2019-05-22T05:05:11.443Z,42.70
2019-05-22T05:07:41.953Z,49.90
2019-05-22T05:10:11.062Z,47.27
2019-05-22T05:12:41.322Z,45.10
2019-05-22T05:15:10.186Z,50.73
2019-05-22T05:17:38.982Z,44.33
2019-05-22T05:20:21.592Z,42.37
2019-05-22T05:22:48.105Z,44.63
2019-05-22T05:25:17.967Z,47.60
2019-05-22T05:27:47.657Z,45.70
2019-05-22T05:30:22.735Z,45.07
2019-05-22T05:32:51.562Z,44.50
2019-05-22T05:35:20.619Z,56.23
2019-05-22T05:37:50.074Z,42.87
2019-05-22T05:40:38.125Z,52.63
2019-05-22T05:43:07.755Z,48.60
2019-05-22T05:45:39.419Z,49.80
2019-05-22T05:48:10.533Z,50.77
2019-05-22T05:50:40.961Z,43.67
2019-05-22T05:53:14.645Z,44.13
2019-05-22T05:56:04.789Z,41.37
2019-05-22T05:58:34.589Z,40.53
2019-05-22T06:01:10.581Z,41.50
2019-05-22T06:03:41.370Z,39.60
2019-05-22T06:06:12.917Z,43.77
2019-05-22T06:08:43.230Z,41.03
2019-05-22T06:11:23.493Z,41.43
2019-05-22T06:13:52.225Z,39.30
2019-05-22T06:16:24.732Z,41.20
2019-05-22T06:18:57.045Z,40.00
2019-05-22T06:21:24.830Z,43.00
2019-05-22T06:24:03.295Z,40.67
2019-05-22T06:26:49.871Z,37.27
2019-05-22T06:29:20.210Z,39.70
2019-05-22T06:31:57.581Z,41.70
2019-05-22T06:34:26.315Z,42.90
2019-05-22T06:36:58.862Z,42.03
2019-05-22T06:39:28.189Z,40.83
2019-05-22T06:41:56.845Z,39.50
2019-05-22T06:44:36.088Z,39.97
2019-05-22T06:47:06.982Z,39.63
2019-05-22T06:49:38.153Z,39.57
2019-05-22T06:52:07.967Z,39.27
2019-05-22T06:54:37.717Z,43.80
2019-05-22T06:57:09.089Z,38.10
2019-05-22T06:59:37.971Z,40.57
2019-05-22T07:02:06.872Z,39.03
2019-05-22T07:04:36.394Z,40.43
2019-05-22T07:07:06.105Z,42.70
2019-05-22T07:09:35.370Z,40.77
2019-05-22T07:12:05.373Z,41.13
2019-05-22T07:14:34.592Z,43.23
2019-05-22T07:17:04.882Z,42.07
2019-05-22T07:19:33.932Z,42.00
2019-05-22T07:22:02.501Z,37.70
2019-05-22T07:24:31.046Z,44.47
2019-05-22T07:27:03.162Z,39.33
2019-05-22T07:29:32.648Z,40.10
2019-05-22T07:32:02.264Z,40.80
2019-05-22T07:34:31.506Z,38.77
2019-05-22T07:37:00.040Z,38.83
2019-05-22T07:39:28.739Z,50.20
2019-05-22T07:41:57.372Z,43.40
2019-05-22T07:44:25.931Z,43.10
2019-05-22T07:46:55.063Z,44.10
2019-05-22T07:49:23.857Z,42.03
2019-05-22T07:52:00.650Z,41.97
2019-05-22T07:54:23.123Z,42.30
2019-05-22T07:56:52.292Z,41.67
2019-05-22T07:59:21.897Z,38.50
2019-05-22T08:01:50.501Z,37.80
2019-05-22T08:04:19.627Z,40.23
2019-05-22T08:06:48.372Z,42.70
2019-05-22T08:09:19.910Z,41.30
2019-05-22T08:11:48.468Z,41.00
2019-05-22T08:14:18.781Z,37.63
2019-05-22T08:16:48.179Z,41.23
2019-05-22T08:19:16.739Z,40.77
2019-05-22T08:21:45.321Z,43.47
2019-05-22T08:24:14.232Z,39.17
2019-05-22T08:26:53.918Z,35.90
2019-05-22T08:29:15.482Z,38.20
2019-05-22T08:31:44.499Z,39.17
2019-05-22T08:34:14.115Z,39.50
2019-05-22T08:36:43.334Z,40.20
2019-05-22T08:39:14.259Z,40.83
2019-05-22T08:41:44.058Z,38.20
2019-05-22T08:44:16.748Z,40.80
2019-05-22T08:46:44.964Z,41.50
2019-05-22T08:49:14.181Z,37.47
2019-05-22T08:51:42.844Z,43.50
2019-05-22T08:54:13.047Z,38.13
2019-05-22T08:56:44.585Z,39.57
2019-05-22T08:59:19.341Z,42.67
2019-05-22T09:01:44.393Z,45.33
2019-05-22T09:04:13.131Z,37.87
2019-05-22T09:06:42.051Z,40.80
2019-05-22T09:09:10.537Z,38.97
2019-05-22T09:11:39.083Z,39.27
2019-05-22T09:14:07.710Z,41.23
2019-05-22T09:16:36.448Z,42.60
2019-05-22T09:19:05.162Z,42.20
2019-05-22T09:21:34.482Z,40.80
2019-05-22T09:24:04.722Z,39.93
2019-05-22T09:26:33.794Z,38.83
2019-05-22T09:29:02.435Z,40.07
2019-05-22T09:31:31.091Z,39.67
2019-05-22T09:33:59.739Z,39.97
2019-05-22T09:36:28.726Z,37.53
2019-05-22T09:38:57.205Z,36.33
2019-05-22T09:41:25.867Z,40.33
2019-05-22T09:43:54.356Z,32.73
2019-05-22T09:46:24.340Z,35.33
2019-05-22T09:48:53.046Z,34.97
2019-05-22T09:51:21.944Z,35.87
2019-05-22T09:53:51.280Z,37.97
2019-05-22T09:56:20.301Z,37.03
2019-05-22T09:58:49.156Z,36.53
2019-05-22T10:01:17.989Z,39.13
2019-05-22T10:03:47.243Z,37.87
2019-05-22T10:06:15.734Z,40.60
2019-05-22T10:08:44.516Z,40.80
2019-05-22T10:11:14.004Z,39.27
2019-05-22T10:13:45.117Z,41.20
2019-05-22T10:16:13.636Z,41.57
2019-05-22T10:18:42.097Z,42.63
2019-05-22T10:21:11.118Z,41.33
2019-05-22T10:23:40.965Z,40.07
2019-05-22T10:26:10.257Z,35.87
2019-05-22T10:28:39.546Z,36.93
2019-05-22T10:31:08.921Z,35.73
2019-05-22T10:33:38.758Z,35.17
2019-05-22T10:36:08.349Z,37.90
2019-05-22T10:38:37.061Z,34.40
2019-05-22T10:41:06.391Z,37.07
2019-05-22T10:43:35.525Z,33.33
2019-05-22T10:46:04.219Z,33.30
2019-05-22T10:48:32.788Z,34.87
2019-05-22T10:51:01.373Z,32.40
2019-05-22T10:53:34.037Z,36.03
2019-05-22T10:56:00.924Z,32.43
2019-05-22T10:58:30.204Z,31.87
2019-05-22T11:00:58.693Z,32.60
2019-05-22T11:03:27.346Z,34.30
2019-05-22T11:06:06.345Z,30.93
2019-05-22T11:08:29.556Z,34.90
2019-05-22T11:10:57.563Z,32.60
2019-05-22T11:13:26.995Z,35.90
2019-05-22T11:15:56.710Z,35.67
2019-05-22T11:18:25.363Z,33.47
2019-05-22T11:20:53.854Z,31.93
2019-05-22T11:23:22.705Z,36.00
2019-05-22T11:25:51.626Z,32.27
2019-05-22T11:28:20.092Z,32.13
2019-05-22T11:30:48.946Z,31.30
2019-05-22T11:33:17.897Z,29.93
2019-05-22T11:35:46.508Z,27.63
2019-05-22T11:38:16.029Z,29.30
2019-05-22T11:40:45.267Z,25.03
2019-05-22T11:43:14.857Z,29.27
2019-05-22T11:45:45.342Z,27.40
2019-05-22T11:48:14.256Z,25.43
2019-05-22T11:50:43.935Z,25.07
2019-05-22T11:53:14.344Z,22.23
2019-05-22T11:55:45.849Z,22.37
2019-05-22T11:58:13.577Z,22.57
2019-05-22T12:00:42.340Z,25.90
2019-05-22T12:03:12.053Z,23.47
2019-05-22T12:05:40.839Z,20.73
2019-05-22T12:08:11.244Z,23.80
2019-05-22T12:10:40.301Z,24.10
2019-05-22T12:13:09.657Z,21.67
2019-05-22T12:15:39.229Z,20.73
2019-05-22T12:18:10.402Z,23.63
2019-05-22T12:20:39.471Z,21.67
2019-05-22T12:23:08.207Z,21.70
2019-05-22T12:25:36.912Z,21.40
2019-05-22T12:28:05.729Z,21.63
2019-05-22T12:30:35.503Z,25.63
2019-05-22T12:33:12.597Z,21.93
2019-05-22T12:35:35.277Z,22.60
2019-05-22T12:38:04.979Z,21.53
2019-05-22T12:40:35.059Z,22.40
2019-05-22T12:43:04.176Z,23.13
2019-05-22T12:45:33.463Z,22.17
2019-05-22T12:48:02.718Z,24.23
2019-05-22T12:50:31.859Z,21.70
2019-05-22T12:53:06.718Z,22.70
2019-05-22T12:55:35.359Z,23.40
2019-05-22T12:58:05.788Z,23.70
2019-05-22T13:00:35.569Z,25.20
2019-05-22T13:03:04.826Z,23.07
2019-05-22T13:05:36.572Z,21.87
2019-05-22T13:08:05.979Z,25.80
2019-05-22T13:10:36.139Z,25.30
2019-05-22T13:13:04.849Z,24.57
2019-05-22T13:15:35.364Z,24.80
2019-05-22T13:18:05.745Z,22.13
2019-05-22T13:20:42.911Z,21.73
2019-05-22T13:23:09.279Z,21.83
2019-05-22T13:25:39.693Z,20.97
2019-05-22T13:28:10.839Z,21.90
2019-05-22T13:30:42.543Z,21.90
2019-05-22T13:33:15.971Z,20.30
2019-05-22T13:35:45.365Z,23.93
2019-05-22T13:38:14.817Z,21.87
2019-05-22T13:40:44.382Z,26.13
2019-05-22T13:43:13.189Z,23.80
2019-05-22T13:45:42.158Z,31.30
2019-05-22T13:48:11.499Z,25.70
2019-05-22T13:50:40.420Z,26.63
2019-05-22T13:53:10.890Z,29.37
2019-05-22T13:55:39.589Z,29.97
2019-05-22T13:58:08.978Z,30.73
2019-05-22T14:00:37.981Z,34.13
2019-05-22T14:03:07.070Z,34.50
2019-05-22T14:05:36.413Z,32.80
2019-05-22T14:08:06.611Z,33.23
2019-05-22T14:10:35.334Z,31.87
2019-05-22T14:13:04.404Z,34.33
2019-05-22T14:15:50.061Z,34.80
2019-05-22T14:18:03.748Z,34.57
2019-05-22T14:20:32.367Z,34.77
2019-05-22T14:23:01.071Z,37.03
2019-05-22T14:25:30.764Z,36.60
2019-05-22T14:27:59.326Z,32.30
2019-05-22T14:30:28.654Z,32.70
2019-05-22T14:33:03.839Z,30.87
2019-05-22T14:35:46.995Z,31.43
2019-05-22T14:38:01.841Z,34.10
2019-05-22T14:40:32.415Z,32.00
2019-05-22T14:43:01.280Z,30.30
2019-05-22T14:45:30.422Z,32.90
2019-05-22T14:47:59.032Z,30.70
2019-05-22T14:50:32.373Z,32.80
2019-05-22T14:52:58.978Z,31.47
2019-05-22T14:55:28.370Z,29.10
2019-05-22T14:57:57.074Z,26.30
2019-05-22T15:00:27.255Z,28.70
2019-05-22T15:02:58.504Z,29.27
2019-05-22T15:05:26.402Z,24.67
2019-05-22T15:07:54.967Z,26.63
2019-05-22T15:10:26.561Z,29.50
2019-05-22T15:12:55.099Z,27.87
2019-05-22T15:15:24.163Z,23.83
2019-05-22T15:17:52.823Z,23.77
2019-05-22T15:20:25.417Z,23.53
2019-05-22T15:22:56.236Z,24.97
2019-05-22T15:25:25.132Z,24.73
2019-05-22T15:27:53.716Z,23.20
2019-05-22T15:30:22.410Z,22.60
2019-05-22T15:32:51.061Z,20.80
2019-05-22T15:35:20.172Z,20.97
2019-05-22T15:37:49.236Z,21.20
2019-05-22T15:40:19.272Z,21.00
2019-05-22T15:42:48.162Z,21.17
2019-05-22T15:45:23.117Z,22.17
2019-05-22T15:47:56.351Z,22.27
2019-05-22T15:50:30.295Z,21.60
2019-05-22T15:53:04.099Z,20.40
2019-05-22T15:55:33.898Z,22.63
2019-05-22T15:58:05.282Z,19.47
2019-05-22T16:00:36.574Z,19.70
2019-05-22T16:03:15.172Z,21.07
2019-05-22T16:05:45.143Z,18.27
2019-05-22T16:08:14.826Z,19.60
2019-05-22T16:10:46.571Z,19.57
2019-05-22T16:13:17.219Z,19.07
2019-05-22T16:15:49.013Z,20.13
2019-05-22T16:18:20.197Z,18.47
2019-05-22T16:20:49.633Z,18.00
2019-05-22T16:23:21.703Z,20.70
2019-05-22T16:25:51.071Z,19.77
2019-05-22T16:28:20.268Z,19.17
2019-05-22T16:30:48.916Z,20.40
2019-05-22T16:33:18.446Z,19.03
2019-05-22T16:35:47.498Z,19.63
2019-05-22T16:38:16.804Z,19.97
2019-05-22T16:40:45.994Z,19.83
2019-05-22T16:43:15.416Z,20.30
2019-05-22T16:45:44.179Z,17.53
2019-05-22T16:48:27.749Z,17.27
2019-05-22T16:50:46.226Z,18.93
2019-05-22T16:53:16.100Z,16.87
2019-05-22T16:55:45.341Z,15.97
2019-05-22T16:58:15.215Z,15.83
2019-05-22T17:00:45.330Z,13.93
2019-05-22T17:03:15.952Z,15.53
2019-05-22T17:05:45.059Z,16.00
2019-05-22T17:08:14.941Z,16.53
2019-05-22T17:10:43.614Z,14.90
2019-05-22T17:13:14.698Z,16.87
2019-05-22T17:15:43.879Z,16.83
2019-05-22T17:18:15.415Z,15.77
2019-05-22T17:20:44.796Z,16.50
2019-05-22T17:23:13.823Z,18.57
2019-05-22T17:25:43.431Z,15.10
2019-05-22T17:28:12.290Z,13.40
2019-05-22T17:30:41.231Z,15.70
2019-05-22T17:33:10.812Z,18.50
2019-05-22T17:35:40.610Z,16.10
2019-05-22T17:38:10.569Z,15.03
2019-05-22T17:40:40.221Z,14.10
2019-05-22T17:43:10.251Z,14.90
2019-05-22T17:45:40.408Z,18.27
2019-05-22T17:48:09.445Z,15.23
2019-05-22T17:50:38.107Z,15.70
2019-05-22T17:53:07.497Z,14.80
2019-05-22T17:55:37.689Z,17.57
2019-05-22T17:58:07.170Z,15.67
2019-05-22T18:00:37.869Z,13.63
2019-05-22T18:03:07.039Z,14.30
2019-05-22T18:05:36.664Z,14.90
2019-05-22T18:08:05.987Z,13.07
2019-05-22T18:10:40.469Z,15.73
2019-05-22T18:13:09.869Z,14.07
2019-05-22T18:15:38.861Z,13.10
2019-05-22T18:18:09.411Z,12.27
2019-05-22T18:20:43.250Z,12.63
2019-05-22T18:23:08.963Z,11.07
2019-05-22T18:25:37.891Z,11.20
2019-05-22T18:28:07.441Z,11.77
2019-05-22T18:30:37.805Z,12.03
2019-05-22T18:33:07.295Z,12.63
2019-05-22T18:35:36.259Z,11.90
2019-05-22T18:38:05.149Z,12.43
2019-05-22T18:40:34.094Z,13.30
2019-05-22T18:43:02.562Z,14.23
2019-05-22T18:45:32.758Z,10.97
2019-05-22T18:48:01.317Z,11.60
2019-05-22T18:50:29.947Z,11.17
2019-05-22T18:52:58.557Z,11.47
2019-05-22T18:55:27.514Z,11.77
2019-05-22T18:57:56.153Z,12.37
2019-05-22T19:00:26.547Z,11.60
2019-05-22T19:02:55.461Z,11.07
2019-05-22T19:05:27.582Z,11.13
2019-05-22T19:07:56.153Z,10.93
2019-05-22T19:10:25.410Z,12.13
2019-05-22T19:12:54.021Z,13.07
2019-05-22T19:15:23.547Z,11.67
2019-05-22T19:17:52.076Z,15.83
2019-05-22T19:20:20.561Z,11.60
2019-05-22T19:22:59.604Z,14.03
2019-05-22T19:25:19.822Z,12.60
2019-05-22T19:27:48.727Z,15.33
2019-05-22T19:30:19.517Z,14.37
2019-05-22T19:32:48.798Z,13.00
2019-05-22T19:35:17.545Z,13.23
2019-05-22T19:37:46.939Z,12.47
2019-05-22T19:40:17.606Z,13.80
2019-05-22T19:42:46.232Z,15.17
2019-05-22T19:45:15.659Z,13.33
2019-05-22T19:47:52.809Z,15.10
2019-05-22T19:50:23.911Z,13.00
2019-05-22T19:52:54.859Z,12.57
2019-05-22T19:55:25.911Z,13.80
2019-05-22T19:57:55.020Z,21.00
2019-05-22T20:00:23.565Z,11.00
2019-05-22T20:02:52.949Z,12.43
2019-05-22T20:05:22.821Z,12.83
2019-05-22T20:07:51.940Z,10.37
2019-05-22T20:10:21.759Z,11.10
2019-05-22T20:12:50.649Z,10.50
2019-05-22T20:15:19.835Z,14.13
2019-05-22T20:17:48.452Z,12.43
2019-05-22T20:20:19.798Z,12.03
2019-05-22T20:22:49.610Z,11.03
2019-05-22T20:25:20.401Z,10.07
2019-05-22T20:27:49.004Z,10.20
2019-05-22T20:30:20.174Z,9.90
2019-05-22T20:32:49.948Z,10.97
2019-05-22T20:35:18.651Z,11.07
2019-05-22T20:37:47.671Z,9.07
2019-05-22T20:40:18.410Z,9.27
2019-05-22T20:42:46.946Z,10.40
2019-05-22T20:45:17.516Z,9.77
2019-05-22T20:47:46.865Z,9.33
2019-05-22T20:50:15.671Z,12.43
2019-05-22T20:52:45.503Z,10.90
2019-05-22T20:55:14.700Z,11.33
2019-05-22T20:57:44.014Z,11.07
2019-05-22T21:00:14.957Z,9.03
2019-05-22T21:02:45.451Z,12.07
2019-05-22T21:05:16.136Z,12.37
2019-05-22T21:07:49.740Z,10.83
2019-05-22T21:10:22.537Z,10.93
2019-05-22T21:12:51.851Z,12.73
2019-05-22T21:15:22.067Z,11.73
2019-05-22T21:17:52.179Z,12.00
2019-05-22T21:20:22.376Z,14.10
2019-05-22T21:22:51.932Z,15.70
2019-05-22T21:25:20.745Z,13.57
2019-05-22T21:27:49.377Z,13.10
2019-05-22T21:30:19.204Z,12.77
2019-05-22T21:32:49.018Z,12.77
2019-05-22T21:35:19.206Z,14.20
2019-05-22T21:37:47.900Z,13.17
2019-05-22T21:40:19.880Z,14.47
2019-05-22T21:42:49.103Z,14.50
2019-05-22T21:45:18.135Z,14.47
2019-05-22T21:47:46.833Z,16.23
2019-05-22T21:50:16.738Z,14.93
2019-05-22T21:52:45.734Z,15.00
2019-05-22T21:55:16.018Z,15.27
2019-05-22T21:57:45.778Z,13.80
2019-05-22T22:00:24.664Z,15.40
2019-05-22T22:02:55.873Z,14.73
2019-05-22T22:05:25.343Z,14.13
2019-05-22T22:07:54.174Z,14.73
2019-05-22T22:10:22.707Z,17.43
2019-05-22T22:12:52.250Z,15.90
2019-05-22T22:15:22.143Z,14.93
2019-05-22T22:17:52.939Z,15.50
2019-05-22T22:20:22.145Z,14.30
2019-05-22T22:22:51.334Z,17.00
2019-05-22T22:25:22.122Z,16.87
2019-05-22T22:27:50.719Z,14.50
2019-05-22T22:30:24.065Z,16.17
2019-05-22T22:32:54.228Z,15.87
2019-05-22T22:35:23.059Z,17.73
2019-05-22T22:37:51.641Z,16.20
2019-05-22T22:40:24.313Z,15.87
2019-05-22T22:42:54.317Z,18.63
2019-05-22T22:45:35.417Z,14.80
2019-05-22T22:48:04.531Z,14.93
2019-05-22T22:50:32.991Z,14.53
2019-05-22T22:53:03.976Z,16.57
2019-05-22T22:55:33.806Z,15.53
2019-05-22T22:58:15.979Z,15.23
2019-05-22T23:00:34.277Z,15.63
2019-05-22T23:03:04.247Z,15.37
2019-05-22T23:12:53.931Z,15.33
2019-05-22T23:15:24.445Z,15.87
2019-05-22T23:17:53.554Z,15.17
2019-05-22T23:20:21.299Z,16.43
2019-05-22T23:22:49.376Z,16.17
2019-05-22T23:25:19.416Z,16.20
2019-05-22T23:27:48.510Z,17.10
2019-05-22T23:30:18.599Z,16.13
2019-05-22T23:32:47.195Z,17.30
2019-05-22T23:35:17.183Z,16.50
2019-05-22T23:37:46.281Z,17.03
2019-05-22T23:40:18.626Z,26.03
2019-05-22T23:42:48.172Z,23.50
2019-05-22T23:45:20.518Z,17.23
2019-05-22T23:48:05.589Z,16.13
2019-05-22T23:50:36.846Z,16.83
2019-05-22T23:53:05.818Z,16.87
2019-05-22T23:55:35.182Z,16.43
2019-05-22T23:58:05.475Z,14.37
